createdAt,value
2019-05-11T00:01:38.868Z,22.40
2019-05-11T00:04:08.643Z,22.40
2019-05-11T00:06:38.480Z,22.40
2019-05-11T00:09:08.419Z,22.40
2019-05-11T00:11:38.245Z,22.40
2019-05-11T00:14:08.085Z,22.40
2019-05-11T00:16:37.831Z,22.40
2019-05-11T00:19:07.586Z,22.40
2019-05-11T00:21:37.923Z,22.40
2019-05-11T00:24:07.737Z,22.40
2019-05-11T00:26:39.598Z,22.40
2019-05-11T00:29:09.626Z,22.40
2019-05-11T00:31:39.390Z,22.40
2019-05-11T00:34:10.171Z,22.30
2019-05-11T00:36:40.559Z,22.30
2019-05-11T00:39:10.451Z,22.30
2019-05-11T00:41:40.215Z,22.30
2019-05-11T00:44:10.027Z,22.30
2019-05-11T00:46:39.786Z,22.30
2019-05-11T00:49:09.555Z,22.30
2019-05-11T00:51:39.383Z,22.30
2019-05-11T00:54:09.156Z,22.30
2019-05-11T00:56:39.390Z,22.30
2019-05-11T00:59:21.021Z,22.30
2019-05-11T01:01:41.221Z,22.30
2019-05-11T01:04:11.159Z,22.30
2019-05-11T01:06:40.972Z,22.30
2019-05-11T01:09:10.796Z,22.30
2019-05-11T01:11:40.840Z,22.30
2019-05-11T01:14:10.598Z,22.20
2019-05-11T01:16:40.395Z,22.30
2019-05-11T01:19:10.230Z,22.30
2019-05-11T01:21:41.404Z,22.30
2019-05-11T01:24:11.160Z,22.20
2019-05-11T01:26:40.921Z,22.20
2019-05-11T01:29:10.690Z,22.20
2019-05-11T01:31:40.442Z,22.20
2019-05-11T01:34:10.775Z,22.20
2019-05-11T01:36:42.091Z,22.20
2019-05-11T01:39:11.863Z,22.20
2019-05-11T01:41:41.621Z,22.20
2019-05-11T01:44:11.368Z,22.20
2019-05-11T01:46:41.250Z,22.20
2019-05-11T01:49:11.034Z,22.20
2019-05-11T01:51:40.793Z,22.20
2019-05-11T01:54:10.590Z,22.10
2019-05-11T01:56:40.347Z,22.20
2019-05-11T01:59:10.095Z,22.20
2019-05-11T02:01:39.866Z,22.20
2019-05-11T02:04:09.685Z,22.20
2019-05-11T02:06:40.694Z,22.20
2019-05-11T02:09:10.591Z,22.10
2019-05-11T02:11:40.342Z,22.10
2019-05-11T02:14:10.138Z,22.10
2019-05-11T02:16:39.973Z,22.10
2019-05-11T02:19:09.722Z,22.10
2019-05-11T02:21:39.485Z,22.10
2019-05-11T02:24:09.379Z,22.10
2019-05-11T02:26:39.123Z,22.10
2019-05-11T02:29:09.165Z,22.10
2019-05-11T02:34:19.119Z,22.00
2019-05-11T02:36:48.876Z,22.00
2019-05-11T02:39:18.627Z,22.00
2019-05-11T02:41:48.396Z,22.00
2019-05-11T02:44:18.152Z,22.00
2019-05-11T02:46:47.914Z,22.00
2019-05-11T02:49:18.048Z,22.00
2019-05-11T02:51:47.978Z,22.00
2019-05-11T02:54:18.005Z,22.00
2019-05-11T02:56:47.783Z,22.00
2019-05-11T02:59:19.380Z,22.00
2019-05-11T03:01:49.139Z,22.00
2019-05-11T03:04:18.891Z,22.00
2019-05-11T03:06:48.671Z,22.00
2019-05-11T03:09:18.421Z,22.00
2019-05-11T03:11:55.818Z,21.90
2019-05-11T03:14:19.655Z,22.00
2019-05-11T03:16:51.769Z,21.90
2019-05-11T03:19:21.520Z,21.90
2019-05-11T03:21:51.273Z,21.90
2019-05-11T03:24:24.007Z,21.90
2019-05-11T03:26:52.564Z,21.90
2019-05-11T03:29:22.314Z,21.90
2019-05-11T03:31:53.776Z,21.90
2019-05-11T03:34:24.151Z,21.90
2019-05-11T03:36:53.931Z,21.80
2019-05-11T03:39:23.735Z,21.80
2019-05-11T03:41:53.498Z,21.80
2019-05-11T03:44:23.248Z,21.80
2019-05-11T03:46:53.460Z,21.80
2019-05-11T03:49:24.705Z,21.80
2019-05-11T03:51:54.462Z,21.80
2019-05-11T03:54:24.290Z,21.80
2019-05-11T03:56:54.221Z,21.80
2019-05-11T03:59:24.024Z,21.80
2019-05-11T04:01:53.942Z,21.80
2019-05-11T04:04:23.899Z,21.80
2019-05-11T04:06:54.008Z,21.80
2019-05-11T04:09:23.759Z,21.80
2019-05-11T04:11:53.515Z,21.80
2019-05-11T04:14:23.327Z,21.70
2019-05-11T04:16:53.149Z,21.70
2019-05-11T04:19:22.884Z,21.70
2019-05-11T04:21:52.758Z,21.70
2019-05-11T04:24:22.503Z,21.70
2019-05-11T04:26:52.251Z,21.70
2019-05-11T04:29:22.421Z,21.70
2019-05-11T04:31:53.969Z,21.70
2019-05-11T04:34:24.955Z,21.70
2019-05-11T04:36:54.710Z,21.70
2019-05-11T04:39:24.835Z,21.70
2019-05-11T04:41:54.591Z,21.60
2019-05-11T04:44:25.492Z,21.60
2019-05-11T04:46:55.547Z,21.60
2019-05-11T04:49:25.470Z,21.60
2019-05-11T04:51:55.219Z,21.60
2019-05-11T04:54:25.026Z,21.60
2019-05-11T04:56:54.799Z,21.60
2019-05-11T04:59:24.627Z,21.60
2019-05-11T05:01:54.431Z,21.60
2019-05-11T05:04:24.258Z,21.50
2019-05-11T05:06:59.697Z,21.60
2019-05-11T05:09:25.832Z,21.50
2019-05-11T05:11:55.758Z,21.50
2019-05-11T05:14:25.502Z,21.50
2019-05-11T05:16:55.346Z,21.50
2019-05-11T05:19:25.090Z,21.50
2019-05-11T05:21:54.841Z,21.50
2019-05-11T05:24:24.659Z,21.40
2019-05-11T05:26:54.420Z,21.40
2019-05-11T05:29:25.244Z,21.40
2019-05-11T05:31:56.800Z,21.40
2019-05-11T05:34:27.103Z,21.40
2019-05-11T05:36:56.851Z,21.40
2019-05-11T05:39:26.610Z,21.40
2019-05-11T05:41:57.608Z,21.40
2019-05-11T05:44:28.198Z,21.30
2019-05-11T05:46:58.232Z,21.30
2019-05-11T05:49:27.971Z,21.30
2019-05-11T05:51:58.593Z,21.30
2019-05-11T05:54:28.938Z,21.30
2019-05-11T05:56:59.166Z,21.30
2019-05-11T05:59:28.921Z,21.30
2019-05-11T06:01:58.683Z,21.30
2019-05-11T06:04:28.438Z,21.30
2019-05-11T06:06:58.183Z,21.30
2019-05-11T06:09:27.981Z,21.30
2019-05-11T06:11:57.816Z,21.20
2019-05-11T06:14:27.567Z,21.20
2019-05-11T06:16:57.326Z,21.20
2019-05-11T06:19:27.085Z,21.20
2019-05-11T06:21:58.207Z,21.20
2019-05-11T06:24:27.963Z,21.20
2019-05-11T06:26:57.713Z,21.20
2019-05-11T06:29:27.529Z,21.10
2019-05-11T06:31:58.387Z,21.10
2019-05-11T06:34:28.798Z,21.10
2019-05-11T06:36:59.234Z,21.10
2019-05-11T06:39:28.992Z,21.10
2019-05-11T06:41:58.755Z,21.00
2019-05-11T06:44:28.531Z,21.00
2019-05-11T06:46:58.291Z,21.00
2019-05-11T06:49:28.082Z,21.00
2019-05-11T06:51:57.830Z,21.00
2019-05-11T06:54:28.116Z,20.90
2019-05-11T06:56:57.872Z,20.90
2019-05-11T06:59:27.620Z,20.90
2019-05-11T07:01:57.388Z,20.90
2019-05-11T07:04:27.196Z,20.90
2019-05-11T07:06:56.983Z,20.90
2019-05-11T07:09:26.752Z,20.90
2019-05-11T07:11:56.538Z,20.80
2019-05-11T07:14:26.331Z,20.80
2019-05-11T07:16:56.084Z,20.80
2019-05-11T07:19:26.962Z,20.70
2019-05-11T07:21:57.590Z,20.70
2019-05-11T07:24:27.358Z,20.70
2019-05-11T07:26:57.117Z,20.60
2019-05-11T07:29:26.923Z,20.50
2019-05-11T07:32:00.666Z,20.60
2019-05-11T07:34:30.029Z,20.50
2019-05-11T07:37:00.056Z,20.50
2019-05-11T07:39:30.683Z,20.40
2019-05-11T07:42:00.430Z,20.30
2019-05-11T07:44:37.935Z,20.30
2019-05-11T07:47:01.662Z,20.20
2019-05-11T07:49:31.424Z,20.20
2019-05-11T07:52:01.175Z,20.10
2019-05-11T07:54:31.188Z,19.90
2019-05-11T07:57:00.944Z,19.80
2019-05-11T07:59:30.691Z,19.50
2019-05-11T08:02:00.689Z,19.30
2019-05-11T08:04:30.437Z,19.30
2019-05-11T08:07:02.198Z,19.30
2019-05-11T08:09:32.546Z,19.00
2019-05-11T08:12:02.304Z,17.70
2019-05-11T08:14:32.075Z,18.50
2019-05-11T08:17:01.899Z,18.10
2019-05-11T08:19:31.653Z,18.20
2019-05-11T08:22:01.434Z,18.10
2019-05-11T08:24:31.202Z,17.80
2019-05-11T08:27:00.942Z,18.00
2019-05-11T08:29:31.020Z,18.10
2019-05-11T08:32:02.980Z,18.10
2019-05-11T08:34:32.740Z,17.90
2019-05-11T08:37:03.784Z,18.20
2019-05-11T08:39:33.546Z,18.00
2019-05-11T08:42:03.519Z,17.90
2019-05-11T08:44:33.467Z,18.00
2019-05-11T08:47:03.228Z,17.90
2019-05-11T08:49:32.973Z,17.90
2019-05-11T08:52:02.805Z,17.90
2019-05-11T08:54:32.558Z,18.00
2019-05-11T08:57:02.322Z,18.00
2019-05-11T08:59:32.454Z,18.00
2019-05-11T09:02:02.877Z,18.00
2019-05-11T09:04:32.642Z,17.80
2019-05-11T09:07:02.394Z,18.00
2019-05-11T09:09:32.138Z,17.80
2019-05-11T09:12:01.918Z,17.70
2019-05-11T09:14:31.718Z,17.90
2019-05-11T09:17:01.475Z,18.00
2019-05-11T09:19:31.773Z,17.90
2019-05-11T09:22:03.239Z,17.80
2019-05-11T09:24:33.034Z,17.90
2019-05-11T09:27:02.785Z,17.70
2019-05-11T09:29:32.539Z,17.80
2019-05-11T09:32:04.420Z,17.90
2019-05-11T09:34:34.435Z,17.60
2019-05-11T09:37:07.931Z,17.70
2019-05-11T09:39:38.535Z,17.80
2019-05-11T09:42:08.458Z,17.70
2019-05-11T09:44:38.220Z,17.80
2019-05-11T09:47:08.540Z,17.70
2019-05-11T09:49:46.399Z,17.70
2019-05-11T09:52:10.103Z,17.70
2019-05-11T09:54:40.199Z,17.60
2019-05-11T09:57:10.490Z,17.80
2019-05-11T09:59:40.247Z,17.90
2019-05-11T10:02:09.998Z,17.60
2019-05-11T10:04:39.764Z,17.70
2019-05-11T10:07:09.510Z,17.90
2019-05-11T10:09:39.258Z,17.80
2019-05-11T10:12:09.023Z,17.80
2019-05-11T10:14:38.818Z,17.70
2019-05-11T10:17:08.571Z,17.70
2019-05-11T10:19:39.573Z,17.80
2019-05-11T10:22:09.481Z,17.70
2019-05-11T10:24:39.234Z,17.80
2019-05-11T10:27:09.094Z,17.70
2019-05-11T10:29:38.854Z,17.80
2019-05-11T10:32:09.330Z,17.70
2019-05-11T10:34:39.967Z,17.70
2019-05-11T10:37:09.742Z,18.00
2019-05-11T10:39:40.251Z,17.70
2019-05-11T10:42:09.998Z,17.80
2019-05-11T10:44:39.750Z,17.80
2019-05-11T10:47:10.258Z,17.80
2019-05-11T10:49:41.694Z,17.90
2019-05-11T10:52:11.634Z,17.80
2019-05-11T10:54:41.389Z,17.80
2019-05-11T10:57:11.205Z,17.90
2019-05-11T10:59:40.966Z,17.80
2019-05-11T11:02:10.922Z,17.90
2019-05-11T11:04:40.674Z,17.90
2019-05-11T11:07:10.798Z,17.90
2019-05-11T11:09:40.554Z,18.00
2019-05-11T11:12:10.308Z,17.90
2019-05-11T11:14:40.076Z,17.80
2019-05-11T11:17:09.869Z,17.80
2019-05-11T11:19:39.618Z,18.00
2019-05-11T11:22:34.176Z,18.00
2019-05-11T11:24:41.224Z,17.90
2019-05-11T11:27:11.755Z,17.90
2019-05-11T11:29:41.514Z,17.90
2019-05-11T11:32:13.017Z,17.90
2019-05-11T11:34:42.781Z,17.90
2019-05-11T11:37:14.080Z,17.80
2019-05-11T11:39:44.611Z,17.90
2019-05-11T11:42:14.390Z,17.90
2019-05-11T11:44:44.190Z,18.00
2019-05-11T11:47:13.959Z,18.00
2019-05-11T11:49:43.711Z,18.00
2019-05-11T11:52:13.667Z,18.00
2019-05-11T11:54:43.898Z,18.10
2019-05-11T11:57:13.685Z,18.10
2019-05-11T11:59:43.786Z,18.00
2019-05-11T12:02:13.542Z,18.10
2019-05-11T12:04:43.290Z,18.10
2019-05-11T12:07:13.055Z,18.20
2019-05-11T12:09:42.818Z,18.30
2019-05-11T12:12:12.630Z,18.40
2019-05-11T12:14:42.665Z,18.30
2019-05-11T12:17:12.434Z,18.30
2019-05-11T12:19:42.186Z,18.30
2019-05-11T12:22:11.940Z,18.30
2019-05-11T12:24:41.722Z,18.40
2019-05-11T12:27:11.482Z,18.20
2019-05-11T12:29:41.238Z,18.40
2019-05-11T12:32:18.620Z,18.30
2019-05-11T12:34:48.778Z,18.40
2019-05-11T12:37:22.017Z,18.40
2019-05-11T12:39:51.303Z,18.30
2019-05-11T12:42:21.742Z,18.30
2019-05-11T12:44:51.573Z,18.30
2019-05-11T12:47:25.005Z,18.40
2019-05-11T12:49:52.835Z,18.40
2019-05-11T12:52:22.590Z,18.30
2019-05-11T12:54:52.342Z,18.40
2019-05-11T12:57:22.403Z,18.30
2019-05-11T12:59:52.171Z,18.30
2019-05-11T13:02:21.926Z,18.30
2019-05-11T13:04:51.726Z,18.40
2019-05-11T13:07:21.530Z,18.40
2019-05-11T13:09:51.282Z,18.30
2019-05-11T13:12:21.054Z,18.40
2019-05-11T13:14:50.810Z,18.20
2019-05-11T13:17:34.199Z,18.20
2019-05-11T13:19:52.034Z,18.30
2019-05-11T13:22:21.850Z,18.40
2019-05-11T13:24:51.602Z,18.30
2019-05-11T13:27:21.402Z,18.30
2019-05-11T13:29:51.199Z,18.50
2019-05-11T13:32:22.647Z,18.50
2019-05-11T13:34:53.491Z,18.50
2019-05-11T13:37:24.734Z,18.60
2019-05-11T13:39:54.950Z,18.50
2019-05-11T13:42:27.595Z,18.50
2019-05-11T13:44:58.413Z,18.50
2019-05-11T13:47:28.439Z,18.50
2019-05-11T13:49:58.581Z,18.40
2019-05-11T13:52:28.737Z,18.40
2019-05-11T13:54:58.651Z,18.40
2019-05-11T13:57:28.676Z,18.40
2019-05-11T13:59:58.502Z,18.50
2019-05-11T14:02:28.999Z,18.40
2019-05-11T14:04:58.804Z,18.40
2019-05-11T14:07:28.553Z,18.50
2019-05-11T14:09:58.979Z,18.50
2019-05-11T14:12:28.918Z,18.60
2019-05-11T14:14:58.710Z,18.50
2019-05-11T14:17:31.660Z,18.40
2019-05-11T14:20:00.446Z,18.50
2019-05-11T14:22:30.208Z,18.70
2019-05-11T14:24:59.956Z,18.70
2019-05-11T14:27:30.227Z,18.60
2019-05-11T14:30:03.952Z,18.60
2019-05-11T14:32:33.711Z,18.60
2019-05-11T14:35:04.346Z,18.60
2019-05-11T14:37:34.151Z,18.60
2019-05-11T14:40:04.546Z,18.60
2019-05-11T14:42:35.206Z,18.70
2019-05-11T14:45:05.222Z,18.70
2019-05-11T14:47:34.978Z,18.70
2019-05-11T14:50:05.407Z,18.70
2019-05-11T14:52:35.193Z,18.70
2019-05-11T14:55:07.953Z,18.70
2019-05-11T14:57:39.507Z,18.70
2019-05-11T15:00:09.705Z,18.60
2019-05-11T15:02:48.639Z,18.70
2019-05-11T15:05:18.715Z,18.70
2019-05-11T15:07:52.051Z,18.60
2019-05-11T15:10:21.611Z,18.60
2019-05-11T15:12:51.396Z,18.70
2019-05-11T15:15:21.489Z,18.60
2019-05-11T15:17:53.671Z,18.60
2019-05-11T15:20:23.498Z,18.60
2019-05-11T15:22:53.250Z,18.60
2019-05-11T15:25:23.029Z,18.60
2019-05-11T15:27:52.774Z,18.70
2019-05-11T15:30:24.059Z,18.60
2019-05-11T15:32:58.049Z,18.60
2019-05-11T15:35:28.471Z,18.60
2019-05-11T15:37:58.616Z,18.60
2019-05-11T15:40:28.370Z,18.60
2019-05-11T15:42:58.818Z,18.60
2019-05-11T15:45:28.711Z,18.60
2019-05-11T15:47:59.079Z,18.60
2019-05-11T15:50:29.275Z,18.50
2019-05-11T15:52:59.309Z,18.60
2019-05-11T15:55:29.063Z,18.60
2019-05-11T15:57:59.066Z,18.60
2019-05-11T16:00:29.304Z,18.60
2019-05-11T16:02:59.069Z,18.50
2019-05-11T16:05:28.811Z,18.50
2019-05-11T16:08:01.789Z,18.50
2019-05-11T16:10:30.155Z,18.50
2019-05-11T16:12:59.906Z,18.50
2019-05-11T16:15:31.747Z,18.50
2019-05-11T16:18:01.500Z,18.60
2019-05-11T16:20:31.251Z,18.40
2019-05-11T16:23:01.082Z,18.40
2019-05-11T16:25:30.842Z,18.40
2019-05-11T16:28:00.595Z,18.50
2019-05-11T16:30:30.442Z,18.50
2019-05-11T16:33:02.379Z,18.50
2019-05-11T16:35:32.139Z,18.50
2019-05-11T16:38:01.888Z,18.40
2019-05-11T16:40:31.659Z,18.50
2019-05-11T16:43:02.413Z,18.50
2019-05-11T16:45:32.437Z,18.50
2019-05-11T16:48:02.191Z,18.50
2019-05-11T16:50:31.950Z,18.40
2019-05-11T16:53:01.975Z,18.50
2019-05-11T16:55:31.723Z,18.40
2019-05-11T16:58:02.138Z,18.40
2019-05-11T17:00:31.965Z,18.30
2019-05-11T17:03:01.711Z,18.40
2019-05-11T17:05:33.922Z,18.30
2019-05-11T17:08:05.496Z,18.40
2019-05-11T17:10:35.257Z,18.30
2019-05-11T17:13:05.090Z,18.30
2019-05-11T17:15:34.862Z,18.40
2019-05-11T17:18:04.625Z,18.30
2019-05-11T17:20:34.374Z,18.30
2019-05-11T17:23:04.156Z,18.40
2019-05-11T17:25:33.954Z,18.40
2019-05-11T17:28:06.793Z,18.30
2019-05-11T17:30:35.329Z,18.20
2019-05-11T17:33:08.704Z,18.30
2019-05-11T17:35:38.117Z,18.30
2019-05-11T17:38:08.085Z,18.30
2019-05-11T17:40:38.061Z,18.30
2019-05-11T17:43:09.284Z,18.30
2019-05-11T17:45:39.119Z,18.20
2019-05-11T17:48:08.875Z,18.20
2019-05-11T17:50:38.695Z,18.20
2019-05-11T17:53:08.530Z,18.20
2019-05-11T17:55:38.583Z,18.30
2019-05-11T17:58:08.823Z,18.30
2019-05-11T18:00:39.387Z,18.30
2019-05-11T18:03:11.363Z,18.30
2019-05-11T18:05:41.622Z,18.30
2019-05-11T18:08:13.062Z,18.30
2019-05-11T18:10:43.875Z,18.30
2019-05-11T18:13:13.818Z,18.30
2019-05-11T18:15:43.598Z,18.10
2019-05-11T18:18:13.349Z,18.20
2019-05-11T18:20:43.179Z,18.20
2019-05-11T18:23:12.936Z,18.20
2019-05-11T18:25:42.694Z,18.20
2019-05-11T18:28:14.318Z,18.20
2019-05-11T18:30:44.455Z,18.30
2019-05-11T18:33:14.878Z,18.10
2019-05-11T18:35:46.030Z,18.10
2019-05-11T18:38:17.857Z,18.20
2019-05-11T18:40:48.609Z,18.00
2019-05-11T18:43:18.940Z,18.10
2019-05-11T18:45:49.460Z,18.00
2019-05-11T18:48:19.215Z,18.10
2019-05-11T18:50:49.215Z,17.90
2019-05-11T18:53:19.718Z,18.00
2019-05-11T18:55:50.154Z,18.10
2019-05-11T18:58:19.976Z,18.10
2019-05-11T19:00:49.733Z,18.20
2019-05-11T19:03:19.533Z,18.10
2019-05-11T19:05:49.344Z,18.10
2019-05-11T19:08:19.172Z,18.10
2019-05-11T19:10:49.067Z,18.10
2019-05-11T19:13:18.941Z,18.00
2019-05-11T19:15:48.951Z,18.00
2019-05-11T19:18:18.834Z,18.00
2019-05-11T19:20:49.489Z,17.90
2019-05-11T19:23:19.630Z,17.80
2019-05-11T19:25:49.418Z,17.50
2019-05-11T19:28:19.181Z,17.70
2019-05-11T19:30:49.464Z,17.70
2019-05-11T19:33:21.015Z,17.90
2019-05-11T19:35:50.772Z,17.70
2019-05-11T19:38:20.523Z,18.00
2019-05-11T19:40:50.298Z,18.00
2019-05-11T19:43:20.058Z,18.00
2019-05-11T19:45:50.383Z,17.90
2019-05-11T19:48:20.139Z,17.80
2019-05-11T19:51:03.763Z,17.80
2019-05-11T19:53:23.510Z,17.70
2019-05-11T19:55:53.287Z,17.60
2019-05-11T19:58:23.198Z,17.70
2019-05-11T20:00:53.062Z,17.90
2019-05-11T20:03:22.831Z,17.80
2019-05-11T20:05:52.583Z,17.80
2019-05-11T20:08:22.333Z,18.00
2019-05-11T20:10:52.396Z,17.90
2019-05-11T20:13:22.203Z,17.80
2019-05-11T20:15:51.954Z,17.80
2019-05-11T20:18:21.710Z,17.80
2019-05-11T20:20:51.464Z,17.80
2019-05-11T20:23:21.211Z,17.90
2019-05-11T20:25:50.962Z,17.90
2019-05-11T20:28:20.778Z,17.80
2019-05-11T20:30:50.530Z,17.90
2019-05-11T20:33:21.223Z,17.80
2019-05-11T20:35:51.575Z,17.90
2019-05-11T20:38:21.330Z,17.80
2019-05-11T20:40:51.098Z,17.80
2019-05-11T20:43:20.919Z,17.70
2019-05-11T20:45:50.998Z,17.80
2019-05-11T20:48:22.162Z,17.80
2019-05-11T20:50:52.089Z,17.70
2019-05-11T20:53:21.849Z,17.50
2019-05-11T20:55:51.598Z,20.20
2019-05-11T20:58:21.351Z,20.20
2019-05-11T21:00:51.091Z,20.20
2019-05-11T21:03:20.866Z,20.20
2019-05-11T21:05:50.659Z,20.20
2019-05-11T21:08:20.393Z,20.20
2019-05-11T21:10:50.570Z,20.20
2019-05-11T21:13:20.306Z,20.20
2019-05-11T21:15:50.055Z,20.20
2019-05-11T21:18:19.838Z,20.20
2019-05-11T21:20:49.634Z,20.20
2019-05-11T21:23:19.389Z,20.20
2019-05-11T21:25:49.139Z,20.20
2019-05-11T21:28:18.889Z,20.20
2019-05-11T21:30:48.634Z,20.20
2019-05-11T21:33:20.403Z,20.20
2019-05-11T21:35:50.548Z,20.20
2019-05-11T21:38:22.073Z,20.20
2019-05-11T21:40:51.824Z,20.20
2019-05-11T21:43:21.575Z,20.20
2019-05-11T21:45:51.626Z,20.20
2019-05-11T21:48:22.241Z,20.20
2019-05-11T21:50:51.978Z,20.20
2019-05-11T21:53:21.743Z,20.20
2019-05-11T21:55:51.491Z,20.10
2019-05-11T21:58:21.228Z,20.20
2019-05-11T22:00:51.434Z,20.20
2019-05-11T22:03:21.309Z,20.20
2019-05-11T22:05:51.055Z,20.20
2019-05-11T22:08:20.830Z,20.20
2019-05-11T22:10:50.588Z,20.20
2019-05-11T22:13:20.665Z,20.20
2019-05-11T22:15:50.586Z,20.20
2019-05-11T22:18:30.212Z,20.20
2019-05-11T22:20:51.842Z,20.20
2019-05-11T22:23:21.601Z,20.10
2019-05-11T22:25:51.350Z,20.10
2019-05-11T22:28:21.798Z,20.20
2019-05-11T22:30:51.610Z,20.10
2019-05-11T22:33:28.249Z,20.10
2019-05-11T22:35:58.731Z,20.20
2019-05-11T22:38:30.361Z,20.10
2019-05-11T22:41:00.159Z,20.10
2019-05-11T22:43:29.918Z,20.10
2019-05-11T22:45:59.766Z,20.10
2019-05-11T22:48:30.544Z,20.20
2019-05-11T22:51:00.294Z,20.20
2019-05-11T22:53:43.831Z,20.20
2019-05-11T22:56:01.619Z,20.10
2019-05-11T22:58:31.414Z,20.20
2019-05-11T23:01:01.158Z,20.10
2019-05-11T23:03:31.871Z,20.10
2019-05-11T23:06:01.690Z,20.10
2019-05-11T23:08:31.438Z,20.10
2019-05-11T23:11:01.526Z,20.10
2019-05-11T23:13:31.285Z,20.10
2019-05-11T23:16:01.115Z,20.10
2019-05-11T23:18:30.891Z,20.10
2019-05-11T23:21:00.638Z,20.10
2019-05-11T23:23:30.390Z,20.10
2019-05-11T23:26:00.916Z,20.10
2019-05-11T23:28:30.694Z,20.10
2019-05-11T23:31:00.442Z,20.10
2019-05-11T23:33:30.814Z,20.10
2019-05-11T23:36:01.201Z,20.10
2019-05-11T23:38:30.955Z,20.10
2019-05-11T23:41:00.878Z,20.10
2019-05-11T23:43:30.674Z,20.00
2019-05-11T23:46:00.426Z,20.10
2019-05-11T23:48:31.563Z,20.10
2019-05-11T23:51:01.314Z,20.10
2019-05-11T23:53:31.067Z,20.00
2019-05-11T23:56:00.818Z,20.00
2019-05-11T23:58:30.623Z,20.00
